createdAt,value
2019-02-16T00:01:07.185Z,7.53
2019-02-16T00:03:38.801Z,8.48
2019-02-16T00:06:10.122Z,8.10
2019-02-16T00:08:41.400Z,8.40
2019-02-16T00:11:12.717Z,7.97
2019-02-16T00:13:44.319Z,8.87
2019-02-16T00:18:45.447Z,7.78
2019-02-16T00:21:16.765Z,7.27
2019-02-16T00:23:48.396Z,7.60
2019-02-16T00:26:19.822Z,8.40
2019-02-16T00:28:51.508Z,7.37
2019-02-16T00:31:23.062Z,7.60
2019-02-16T00:33:54.418Z,6.93
2019-02-16T00:36:26.515Z,7.20
2019-02-16T00:38:57.844Z,7.50
2019-02-16T00:41:29.758Z,7.33
2019-02-16T00:44:02.381Z,7.10
2019-02-16T00:46:33.661Z,8.60
2019-02-16T00:49:05.987Z,9.40
2019-02-16T00:51:37.970Z,10.23
2019-02-16T00:54:09.286Z,11.30
2019-02-16T00:56:40.968Z,11.30
2019-02-16T00:59:12.275Z,11.80
2019-02-16T01:01:45.523Z,11.73
2019-02-16T01:04:16.888Z,13.80
2019-02-16T01:06:48.235Z,18.17
2019-02-16T01:09:19.530Z,20.35
2019-02-16T01:11:51.180Z,14.33
2019-02-16T01:14:22.760Z,14.33
2019-02-16T01:16:54.131Z,12.47
2019-02-16T01:19:26.244Z,11.30
2019-02-16T01:21:57.536Z,9.65
2019-02-16T01:24:29.114Z,8.70
2019-02-16T01:27:00.782Z,9.28
2019-02-16T01:29:32.149Z,8.30
2019-02-16T01:32:04.096Z,9.70
2019-02-16T01:34:35.470Z,8.85
2019-02-16T01:37:07.111Z,8.97
2019-02-16T01:39:38.394Z,8.93
2019-02-16T01:42:09.734Z,9.17
2019-02-16T01:44:41.043Z,10.32
2019-02-16T01:47:12.971Z,10.55
2019-02-16T01:49:44.904Z,9.70
2019-02-16T01:52:16.192Z,9.53
2019-02-16T01:54:48.516Z,9.93
2019-02-16T01:57:21.514Z,9.88
2019-02-16T01:59:53.206Z,9.93
2019-02-16T02:02:25.273Z,9.80
2019-02-16T02:04:56.709Z,9.33
2019-02-16T02:07:27.973Z,8.80
2019-02-16T02:09:59.254Z,8.43
2019-02-16T02:12:30.565Z,8.83
2019-02-16T02:15:02.138Z,9.23
2019-02-16T02:17:33.419Z,9.50
2019-02-16T02:20:04.831Z,8.03
2019-02-16T02:22:36.498Z,8.30
2019-02-16T02:25:10.007Z,7.97
2019-02-16T02:27:41.711Z,8.78
2019-02-16T02:30:12.985Z,9.37
2019-02-16T02:32:44.607Z,8.90
2019-02-16T02:35:15.995Z,8.50
2019-02-16T02:37:47.297Z,7.73
2019-02-16T02:40:19.224Z,7.50
2019-02-16T02:42:50.916Z,9.00
2019-02-16T02:45:22.621Z,8.57
2019-02-16T02:47:53.885Z,8.40
2019-02-16T02:50:25.540Z,8.30
2019-02-16T02:52:57.469Z,8.30
2019-02-16T02:55:28.753Z,8.33
2019-02-16T02:58:00.809Z,8.30
2019-02-16T03:00:33.655Z,8.00
2019-02-16T03:03:05.254Z,7.67
2019-02-16T03:05:36.598Z,7.63
2019-02-16T03:08:08.231Z,8.63
2019-02-16T03:10:39.845Z,7.63
2019-02-16T03:13:11.302Z,8.33
2019-02-16T03:15:43.235Z,8.97
2019-02-16T03:18:14.520Z,10.40
2019-02-16T03:20:46.184Z,9.23
2019-02-16T03:23:22.417Z,8.05
2019-02-16T03:26:28.969Z,9.47
2019-02-16T03:29:12.732Z,9.50
2019-02-16T03:33:06.590Z,8.27
2019-02-16T03:36:17.831Z,10.27
2019-02-16T03:39:05.951Z,10.77
2019-02-16T03:41:37.819Z,9.23
2019-02-16T03:44:09.371Z,10.80
2019-02-16T03:46:40.696Z,9.30
2019-02-16T03:49:11.966Z,9.37
2019-02-16T03:51:43.255Z,9.88
2019-02-16T03:54:14.925Z,9.13
2019-02-16T03:56:47.280Z,9.07
2019-02-16T03:59:18.838Z,9.53
2019-02-16T04:01:50.861Z,10.60
2019-02-16T04:04:22.507Z,9.90
2019-02-16T04:06:53.879Z,9.20
2019-02-16T04:09:25.200Z,9.87
2019-02-16T04:11:57.172Z,8.97
2019-02-16T04:14:28.808Z,9.48
2019-02-16T04:17:00.772Z,9.50
2019-02-16T04:19:32.045Z,9.07
2019-02-16T04:22:03.921Z,7.83
2019-02-16T04:24:36.277Z,9.20
2019-02-16T04:27:07.598Z,7.60
2019-02-16T04:29:39.192Z,9.10
2019-02-16T04:32:10.806Z,8.93
2019-02-16T04:34:42.289Z,8.55
2019-02-16T04:37:13.955Z,8.63
2019-02-16T04:39:45.291Z,9.00
2019-02-16T04:42:16.919Z,8.60
2019-02-16T04:44:48.552Z,8.73
2019-02-16T04:47:20.536Z,8.93
2019-02-16T04:49:51.839Z,8.53
2019-02-16T04:52:23.161Z,9.77
2019-02-16T04:54:54.588Z,10.80
2019-02-16T04:57:26.203Z,11.80
2019-02-16T04:59:57.784Z,12.80
2019-02-16T05:02:29.101Z,11.90
2019-02-16T05:05:00.730Z,9.67
2019-02-16T05:07:32.115Z,9.20
2019-02-16T05:10:03.454Z,14.43
2019-02-16T05:12:34.987Z,16.90
2019-02-16T05:15:06.990Z,16.00
2019-02-16T05:17:38.331Z,13.20
2019-02-16T05:20:09.784Z,13.33
2019-02-16T05:22:44.617Z,12.23
2019-02-16T05:25:15.677Z,12.47
2019-02-16T05:27:47.319Z,12.43
2019-02-16T05:30:18.903Z,12.67
2019-02-16T05:32:50.892Z,12.17
2019-02-16T05:35:22.479Z,12.57
2019-02-16T05:37:54.123Z,10.63
2019-02-16T05:40:25.793Z,9.90
2019-02-16T05:42:57.375Z,10.13
2019-02-16T05:45:29.133Z,10.20
2019-02-16T05:48:00.509Z,9.43
2019-02-16T05:50:31.853Z,9.30
2019-02-16T05:53:03.813Z,9.60
2019-02-16T05:55:35.150Z,9.87
2019-02-16T05:58:06.456Z,9.77
2019-02-16T06:00:37.718Z,9.83
2019-02-16T06:03:12.198Z,11.70
2019-02-16T06:05:43.830Z,12.53
2019-02-16T06:08:15.110Z,13.55
2019-02-16T06:10:46.475Z,15.73
2019-02-16T06:13:17.750Z,14.83
2019-02-16T06:15:49.583Z,13.83
2019-02-16T06:18:20.916Z,11.80
2019-02-16T06:20:52.211Z,12.10
2019-02-16T06:23:23.810Z,12.63
2019-02-16T06:25:55.847Z,11.70
2019-02-16T06:28:27.479Z,10.60
2019-02-16T06:30:59.151Z,12.67
2019-02-16T06:33:31.103Z,12.57
2019-02-16T06:36:20.346Z,11.40
2019-02-16T06:38:52.074Z,12.50
2019-02-16T06:41:23.538Z,12.20
2019-02-16T06:43:55.964Z,13.60
2019-02-16T06:46:27.294Z,11.93
2019-02-16T06:48:58.903Z,12.40
2019-02-16T06:51:30.504Z,11.77
2019-02-16T06:54:02.152Z,11.73
2019-02-16T06:56:40.332Z,12.57
2019-02-16T06:59:12.089Z,13.37
2019-02-16T07:01:45.764Z,13.70
2019-02-16T07:04:17.010Z,13.93
2019-02-16T07:06:48.641Z,13.63
2019-02-16T07:09:19.958Z,14.10
2019-02-16T07:11:51.582Z,14.30
2019-02-16T07:14:23.521Z,14.47
2019-02-16T07:17:12.394Z,15.03
2019-02-16T07:19:49.714Z,15.53
2019-02-16T07:22:21.460Z,12.13
2019-02-16T07:24:52.842Z,14.15
2019-02-16T07:27:24.423Z,14.73
2019-02-16T07:29:55.895Z,13.37
2019-02-16T07:32:27.537Z,6.60
2019-02-16T07:34:58.797Z,5.30
2019-02-16T07:37:30.380Z,4.00
2019-02-16T07:40:03.494Z,3.50
2019-02-16T07:42:49.665Z,2.83
2019-02-16T07:45:45.020Z,3.33
2019-02-16T07:48:57.125Z,3.33
2019-02-16T07:51:56.271Z,3.17
2019-02-16T07:54:55.529Z,3.07
2019-02-16T07:57:38.410Z,3.30
2019-02-16T08:00:29.061Z,2.60
2019-02-16T08:03:07.290Z,2.70
2019-02-16T08:05:52.080Z,2.53
2019-02-16T08:08:46.088Z,2.10
2019-02-16T08:11:29.507Z,2.30
2019-02-16T08:14:22.748Z,2.33
2019-02-16T08:17:02.295Z,2.10
2019-02-16T08:20:07.904Z,2.03
2019-02-16T08:22:46.341Z,2.50
2019-02-16T08:25:42.841Z,2.20
2019-02-16T08:28:41.868Z,2.20
2019-02-16T08:31:21.691Z,2.05
2019-02-16T08:34:17.817Z,1.70
2019-02-16T08:37:08.035Z,2.00
2019-02-16T08:39:47.112Z,1.83
2019-02-16T08:42:43.210Z,1.90
2019-02-16T08:45:33.663Z,1.80
2019-02-16T08:48:14.199Z,1.60
2019-02-16T08:51:10.718Z,1.95
2019-02-16T08:53:51.498Z,1.77
2019-02-16T08:56:51.082Z,1.70
2019-02-16T08:59:41.907Z,1.57
2019-02-16T09:02:42.690Z,1.63
2019-02-16T09:05:23.115Z,1.67
2019-02-16T09:08:06.275Z,1.52
2019-02-16T09:11:05.985Z,1.90
2019-02-16T09:13:46.766Z,1.50
2019-02-16T09:16:38.464Z,2.00
2019-02-16T09:19:29.061Z,1.87
2019-02-16T09:22:13.469Z,1.53
2019-02-16T09:24:54.242Z,1.50
2019-02-16T09:27:40.901Z,1.70
2019-02-16T09:30:31.714Z,1.60
2019-02-16T09:33:27.955Z,1.57
2019-02-16T09:36:07.855Z,1.47
2019-02-16T09:39:01.473Z,1.90
2019-02-16T09:41:38.051Z,1.90
2019-02-16T09:44:28.579Z,2.10
2019-02-16T09:47:10.352Z,1.70
2019-02-16T09:49:50.805Z,1.70
2019-02-16T09:52:44.796Z,1.60
2019-02-16T09:55:38.189Z,1.93
2019-02-16T09:58:24.189Z,1.67
2019-02-16T10:01:17.141Z,1.85
2019-02-16T10:04:07.617Z,1.87
2019-02-16T10:07:03.718Z,1.80
2019-02-16T10:09:57.040Z,1.80
2019-02-16T10:12:46.256Z,1.87
2019-02-16T10:15:48.528Z,1.77
2019-02-16T10:18:44.677Z,2.10
2019-02-16T10:21:34.501Z,2.10
2019-02-16T10:24:24.695Z,2.10
2019-02-16T10:27:05.964Z,1.67
2019-02-16T10:29:55.529Z,2.03
2019-02-16T10:32:52.296Z,1.87
2019-02-16T10:35:57.725Z,2.17
2019-02-16T10:38:50.193Z,2.23
2019-02-16T10:41:33.278Z,2.10
2019-02-16T10:44:21.796Z,2.07
2019-02-16T10:47:10.418Z,2.00
2019-02-16T10:50:01.505Z,2.23
2019-02-16T10:52:52.351Z,2.57
2019-02-16T10:55:44.957Z,2.40
2019-02-16T10:58:30.506Z,2.42
2019-02-16T11:01:10.248Z,2.40
2019-02-16T11:04:15.643Z,2.50
2019-02-16T11:07:04.954Z,2.15
2019-02-16T11:09:53.202Z,2.93
2019-02-16T11:12:35.169Z,2.57
2019-02-16T11:15:27.332Z,2.90
2019-02-16T11:18:23.303Z,2.63
2019-02-16T11:21:28.989Z,2.47
2019-02-16T11:24:05.978Z,2.60
2019-02-16T11:27:11.724Z,2.57
2019-02-16T11:30:19.959Z,2.70
2019-02-16T11:33:02.023Z,2.80
2019-02-16T11:35:43.240Z,3.20
2019-02-16T11:38:32.044Z,2.90
2019-02-16T11:41:24.163Z,3.30
2019-02-16T11:44:17.471Z,3.30
2019-02-16T11:47:07.917Z,3.17
2019-02-16T11:49:58.241Z,3.35
2019-02-16T11:52:54.246Z,3.43
2019-02-16T11:55:47.462Z,3.03
2019-02-16T11:58:35.974Z,3.07
2019-02-16T12:01:24.530Z,2.50
2019-02-16T12:04:29.837Z,2.53
2019-02-16T12:07:18.691Z,3.30
2019-02-16T12:09:57.119Z,3.30
2019-02-16T12:12:50.535Z,2.90
2019-02-16T12:15:55.660Z,2.90
2019-02-16T12:18:40.991Z,3.00
2019-02-16T12:21:36.881Z,3.33
2019-02-16T12:24:33.249Z,3.20
2019-02-16T12:27:21.978Z,3.80
2019-02-16T12:30:01.321Z,3.97
2019-02-16T12:32:51.069Z,4.23
2019-02-16T12:35:37.474Z,4.20
2019-02-16T12:38:31.256Z,4.50
2019-02-16T12:41:21.802Z,4.53
2019-02-16T12:44:21.597Z,4.13
2019-02-16T12:47:21.385Z,4.23
2019-02-16T12:50:09.074Z,4.13
2019-02-16T12:52:59.271Z,4.60
2019-02-16T12:56:02.225Z,4.07
2019-02-16T12:58:54.673Z,4.55
2019-02-16T13:01:45.305Z,4.80
2019-02-16T13:04:34.484Z,4.67
2019-02-16T13:07:24.965Z,4.73
2019-02-16T13:10:15.347Z,4.90
2019-02-16T13:13:05.694Z,4.33
2019-02-16T13:16:10.729Z,4.53
2019-02-16T13:19:03.390Z,4.20
2019-02-16T13:21:54.483Z,7.63
2019-02-16T13:24:43.414Z,4.30
2019-02-16T13:27:31.596Z,4.10
2019-02-16T13:30:10.428Z,3.87
2019-02-16T13:33:08.269Z,4.36
2019-02-16T13:35:48.997Z,5.23
2019-02-16T13:38:37.926Z,4.30
2019-02-16T13:41:21.344Z,5.27
2019-02-16T13:44:11.873Z,4.67
2019-02-16T13:47:04.178Z,3.83
2019-02-16T13:49:54.377Z,3.90
2019-02-16T13:52:47.551Z,4.30
2019-02-16T13:55:36.227Z,4.25
2019-02-16T13:58:29.204Z,3.87
2019-02-16T14:01:08.179Z,3.87
2019-02-16T14:04:05.157Z,4.40
2019-02-16T14:06:50.303Z,4.20
2019-02-16T14:09:43.556Z,4.33
2019-02-16T14:12:36.559Z,4.00
2019-02-16T14:15:30.285Z,5.27
2019-02-16T14:18:01.600Z,3.67
2019-02-16T14:20:32.968Z,4.27
2019-02-16T14:23:04.579Z,4.10
2019-02-16T14:25:55.166Z,4.20
2019-02-16T14:28:26.457Z,3.97
2019-02-16T14:30:57.770Z,4.03
2019-02-16T14:33:29.416Z,4.07
2019-02-16T14:36:00.688Z,4.57
2019-02-16T14:38:46.090Z,3.77
2019-02-16T14:41:17.422Z,4.00
2019-02-16T14:43:49.752Z,4.15
2019-02-16T14:46:21.028Z,3.93
2019-02-16T14:48:52.345Z,4.30
2019-02-16T14:51:23.622Z,4.23
2019-02-16T14:53:57.448Z,4.10
2019-02-16T14:56:28.844Z,4.03
2019-02-16T14:59:00.117Z,4.27
2019-02-16T15:01:31.389Z,4.40
2019-02-16T15:04:03.053Z,4.00
2019-02-16T15:06:36.568Z,4.03
2019-02-16T15:09:08.488Z,4.13
2019-02-16T15:11:39.801Z,4.20
2019-02-16T15:14:11.113Z,3.83
2019-02-16T15:16:42.423Z,3.50
2019-02-16T15:19:13.767Z,4.10
2019-02-16T15:21:45.395Z,3.73
2019-02-16T15:24:16.989Z,3.67
2019-02-16T15:26:48.291Z,3.60
2019-02-16T15:29:19.908Z,4.00
2019-02-16T15:31:51.812Z,4.03
2019-02-16T15:34:23.928Z,3.85
2019-02-16T15:36:55.620Z,3.43
2019-02-16T15:39:26.908Z,4.10
2019-02-16T15:41:58.270Z,3.67
2019-02-16T15:44:29.897Z,3.85
2019-02-16T15:47:01.501Z,3.50
2019-02-16T15:49:33.229Z,3.30
2019-02-16T15:52:05.250Z,3.77
2019-02-16T15:54:36.615Z,3.37
2019-02-16T15:57:07.895Z,3.30
2019-02-16T15:59:39.182Z,3.60
2019-02-16T16:02:10.532Z,3.67
2019-02-16T16:04:41.820Z,4.07
2019-02-16T16:07:16.627Z,4.40
2019-02-16T16:10:12.508Z,4.37
2019-02-16T16:13:09.226Z,3.40
2019-02-16T16:16:05.100Z,4.13
2019-02-16T16:19:04.577Z,3.40
2019-02-16T16:21:51.780Z,3.93
2019-02-16T16:24:40.890Z,4.20
2019-02-16T16:27:21.510Z,4.12
2019-02-16T16:30:17.390Z,4.30
2019-02-16T16:33:06.232Z,3.72
2019-02-16T16:35:59.359Z,3.93
2019-02-16T16:38:40.290Z,4.57
2019-02-16T16:41:24.164Z,7.20
2019-02-16T16:44:11.888Z,7.67
2019-02-16T16:46:53.844Z,4.33
2019-02-16T16:49:42.465Z,3.67
2019-02-16T16:52:42.269Z,4.20
2019-02-16T16:55:32.548Z,3.95
2019-02-16T16:58:37.826Z,3.80
2019-02-16T17:01:37.141Z,11.97
2019-02-16T17:04:20.165Z,22.07
2019-02-16T17:07:03.909Z,9.07
2019-02-16T17:10:00.320Z,5.33
2019-02-16T17:12:54.346Z,4.30
2019-02-16T17:15:48.116Z,4.03
2019-02-16T17:18:37.307Z,9.13
2019-02-16T17:21:25.735Z,19.93
2019-02-16T17:24:18.876Z,9.23
2019-02-16T17:27:09.127Z,5.67
2019-02-16T17:29:57.994Z,7.27
2019-02-16T17:33:00.319Z,9.43
2019-02-16T17:35:49.258Z,6.43
2019-02-16T17:38:45.508Z,8.05
2019-02-16T17:41:36.134Z,7.58
2019-02-16T17:44:25.004Z,5.70
2019-02-16T17:47:18.283Z,5.50
2019-02-16T17:50:03.111Z,5.67
2019-02-16T17:53:06.351Z,6.20
2019-02-16T17:56:06.197Z,5.40
2019-02-16T17:59:02.175Z,5.27
2019-02-16T18:01:51.093Z,4.17
2019-02-16T18:04:50.516Z,4.83
2019-02-16T18:07:53.202Z,6.87
2019-02-16T18:10:52.330Z,6.47
2019-02-16T18:13:37.501Z,5.60
2019-02-16T18:16:32.309Z,4.80
2019-02-16T18:19:25.862Z,4.93
2019-02-16T18:22:25.153Z,6.00
2019-02-16T18:25:30.642Z,7.40
2019-02-16T18:28:26.597Z,7.43
2019-02-16T18:31:22.883Z,6.33
2019-02-16T18:34:10.393Z,12.23
2019-02-16T18:37:03.695Z,41.67
2019-02-16T18:39:57.738Z,11.67
2019-02-16T18:42:48.550Z,12.27
2019-02-16T18:45:37.310Z,8.73
2019-02-16T18:48:22.774Z,7.25
2019-02-16T18:54:38.974Z,13.27
2019-02-16T18:57:35.177Z,7.33
2019-02-16T19:00:29.756Z,5.50
2019-02-16T19:03:20.251Z,6.30
2019-02-16T19:06:02.072Z,9.20
2019-02-16T19:08:50.940Z,10.50
2019-02-16T19:11:50.427Z,10.80
2019-02-16T19:14:39.851Z,12.60
2019-02-16T19:17:30.069Z,11.75
2019-02-16T19:20:32.780Z,11.60
2019-02-16T19:23:21.696Z,18.63
2019-02-16T19:26:07.447Z,9.63
2019-02-16T19:29:12.800Z,10.40
2019-02-16T19:32:06.502Z,10.27
2019-02-16T19:34:53.465Z,11.30
2019-02-16T19:37:46.861Z,12.03
2019-02-16T19:40:37.138Z,14.77
2019-02-16T19:43:28.050Z,12.23
2019-02-16T19:46:14.519Z,9.55
2019-02-16T19:49:11.103Z,8.80
2019-02-16T19:52:01.744Z,10.13
2019-02-16T19:55:01.053Z,9.97
2019-02-16T19:57:50.307Z,8.17
2019-02-16T20:00:49.994Z,8.83
2019-02-16T20:03:33.553Z,8.77
2019-02-16T20:06:22.582Z,9.30
2019-02-16T20:09:13.222Z,8.98
2019-02-16T20:12:03.862Z,8.33
2019-02-16T20:15:06.211Z,8.70
2019-02-16T20:17:50.972Z,7.60
2019-02-16T20:20:29.757Z,7.50
2019-02-16T20:23:35.486Z,7.75
2019-02-16T20:26:31.834Z,7.87
2019-02-16T20:29:40.507Z,8.87
2019-02-16T20:32:43.372Z,8.00
2019-02-16T20:35:42.351Z,9.67
2019-02-16T20:38:32.590Z,9.20
2019-02-16T20:41:18.107Z,8.67
2019-02-16T20:44:08.353Z,8.37
2019-02-16T20:47:08.152Z,8.60
2019-02-16T20:49:58.722Z,9.10
2019-02-16T20:52:51.848Z,8.80
2019-02-16T20:55:30.214Z,8.95
2019-02-16T20:58:32.462Z,8.40
2019-02-16T21:01:38.301Z,8.73
2019-02-16T21:04:34.290Z,8.23
2019-02-16T21:07:23.347Z,9.87
2019-02-16T21:10:13.483Z,9.43
2019-02-16T21:12:55.969Z,9.70
2019-02-16T21:15:49.299Z,9.07
2019-02-16T21:18:46.835Z,9.73
2019-02-16T21:21:36.977Z,8.70
2019-02-16T21:24:27.174Z,8.28
2019-02-16T21:27:13.465Z,8.23
2019-02-16T21:29:59.318Z,8.03
2019-02-16T21:32:42.509Z,7.42
2019-02-16T21:35:36.430Z,8.60
2019-02-16T21:38:21.452Z,8.07
2019-02-16T21:41:03.595Z,8.00
2019-02-16T21:43:56.971Z,7.97
2019-02-16T21:46:44.127Z,8.20
2019-02-16T21:49:39.475Z,11.90
2019-02-16T21:52:35.880Z,13.60
2019-02-16T21:55:35.653Z,14.80
2019-02-16T21:58:29.032Z,15.27
2019-02-16T22:01:28.726Z,13.38
2019-02-16T22:04:17.309Z,14.17
2019-02-16T22:07:01.122Z,12.23
2019-02-16T22:10:00.325Z,10.25
2019-02-16T22:12:56.518Z,12.07
2019-02-16T22:15:28.992Z,10.90
2019-02-16T22:18:00.274Z,11.15
2019-02-16T22:20:31.587Z,10.87
2019-02-16T22:23:02.937Z,10.38
2019-02-16T22:25:35.182Z,9.27
2019-02-16T22:28:07.072Z,9.67
2019-02-16T22:30:42.459Z,8.90
2019-02-16T22:33:18.091Z,9.60
2019-02-16T22:35:49.487Z,9.80
2019-02-16T22:38:21.497Z,10.13
2019-02-16T22:40:52.890Z,9.48
2019-02-16T22:43:24.218Z,9.30
2019-02-16T22:45:56.060Z,9.57
2019-02-16T22:48:28.400Z,8.60
2019-02-16T22:51:00.739Z,8.20
2019-02-16T22:53:32.858Z,8.65
2019-02-16T22:56:04.406Z,8.37
2019-02-16T22:58:35.802Z,8.17
2019-02-16T23:01:07.598Z,8.80
2019-02-16T23:03:39.530Z,8.50
2019-02-16T23:06:11.250Z,9.07
2019-02-16T23:08:43.375Z,8.47
2019-02-16T23:11:15.334Z,8.23
2019-02-16T23:13:46.923Z,8.05
2019-02-16T23:16:18.988Z,8.53
2019-02-16T23:18:50.537Z,8.30
2019-02-16T23:21:22.601Z,8.83
2019-02-16T23:23:53.989Z,8.43
2019-02-16T23:26:25.287Z,8.57
2019-02-16T23:28:56.664Z,8.97
2019-02-16T23:31:28.272Z,9.17
2019-02-16T23:33:59.873Z,9.00
2019-02-16T23:36:31.857Z,8.67
2019-02-16T23:39:07.287Z,8.27
2019-02-16T23:41:39.814Z,9.17
2019-02-16T23:44:12.051Z,8.87
2019-02-16T23:46:44.063Z,9.43
2019-02-16T23:49:15.966Z,8.77
2019-02-16T23:51:47.287Z,9.00
2019-02-16T23:54:19.408Z,9.90
2019-02-16T23:56:50.796Z,9.30
2019-02-16T23:59:22.447Z,9.60
